Tuesday, August 30, 2016, 8:03 AM CDT
Back to Local

KHDC, Hammond, Hammond Municipal Airport

Location: Hammond, LA, United States Lat: 30.521
Local Time: 8:03 AM CDT (13:03 GMT) Lon: -90.418
Time Zone: US/Central Elev: 42 ft

Show me the last for .
Show Coded

Time T Td Feel RH Dir Speed Gust Alt SLP Vis Weather Sky Remarks
2016-08-30 07:35 75 72 79 88 30° 5 - 29.96 - 10 CLR None
2016-08-30 07:15 73 72 78 94 20° 7 - 29.96 - 10 CLR None
2016-08-30 06:55 73 72 78 94 20° 6 - 29.96 - 10 CLR None
2016-08-30 06:35 73 72 78 94 - Calm - 29.95 - 10 CLR None
2016-08-30 06:15 73 70 77 88 10° 5 - 29.95 - 7 CLR None
2016-08-30 05:55 73 72 78 94 350° 3 - 29.95 - 7 CLR None
2016-08-30 05:35 73 72 78 94 - Calm - 29.94 - 10 CLR None
2016-08-30 05:15 73 72 78 94 - Calm - 29.94 - 10 CLR None
2016-08-30 04:55 73 72 78 94 340° 5 - 29.93 - 10 CLR None
2016-08-30 04:35 73 72 78 94 360° 5 - 29.94 - 7 CLR None
2016-08-30 04:15 73 72 78 94 360° 6 - 29.93 - 7 CLR None
2016-08-30 03:55 73 72 78 94 360° 3 - 29.94 - 7 CLR None
2016-08-30 03:35 73 72 78 94 350° 3 - 29.94 - 10 CLR None
2016-08-30 03:15 73 72 78 94 - Calm - 29.95 - 10 CLR None
2016-08-30 02:55 73 72 78 94 360° 5 - 29.95 - 7 CLR None
2016-08-30 02:35 73 72 78 94 10° 5 - 29.95 - 7 CLR None
2016-08-30 02:15 75 72 79 88 350° 3 - 29.95 - 7 SCT050 None
2016-08-30 01:55 75 72 79 88 - Calm - 29.96 - 7 SCT050 None
2016-08-30 01:35 75 72 79 88 360° 3 - 29.96 - 7 CLR None
2016-08-30 01:15 75 72 79 88 - Calm - 29.97 - 5 BR CLR None
2016-08-30 00:55 75 72 79 88 - Calm - 29.97 - 7 CLR None
2016-08-30 00:35 77 73 82 88 - Calm - 29.97 - 7 CLR None
2016-08-30 00:15 77 73 82 88 - Calm - 29.97 - 7 CLR None
2016-08-29 23:55 77 73 82 88 - Calm - 29.98 - 10 CLR None
2016-08-29 23:35 77 73 82 88 - Calm - 29.98 - 10 SCT050 None
2016-08-29 23:15 77 73 82 88 350° 3 - 29.98 - 10 BKN050 None
2016-08-29 22:55 77 73 82 88 350° 3 - 29.98 - 10 SCT050 None
2016-08-29 22:35 77 73 82 88 350° 3 - 29.98 - 10 SCT055 None
2016-08-29 22:15 77 73 82 88 350° 3 - 29.98 - 10 CLR None
2016-08-29 21:55 77 73 82 88 10° 3 - 29.97 - 10 CLR None
2016-08-29 21:35 77 73 82 88 350° 3 - 29.97 - 10 CLR None
2016-08-29 21:15 77 73 82 88 360° 5 - 29.96 - 10 CLR None
2016-08-29 20:55 77 73 82 88 350° 3 - 29.96 - 10 CLR None
2016-08-29 20:35 79 73 84 83 360° 3 - 29.95 - 10 CLR None
2016-08-29 20:15 79 73 84 83 10° 3 - 29.95 - 10 CLR None
2016-08-29 19:55 79 73 84 83 350° 3 - 29.94 - 10 CLR None
2016-08-29 19:35 79 73 84 83 - Calm - 29.94 - 10 CLR None
2016-08-29 19:15 81 72 85 74 - Calm - 29.93 - 10 CLR None
2016-08-29 18:55 81 72 85 74 - Calm - 29.93 - 10 CLR None
2016-08-29 18:35 82 72 88 69 - Calm - 29.92 - 10 CLR None
2016-08-29 18:15 82 72 88 69 110° 5 - 29.93 - 10 CLR None
2016-08-29 17:55 82 72 88 69 160° 5 - 29.94 - 10 CLR None
2016-08-29 17:35 82 72 88 69 150° 6 - 29.94 - 10 CLR None
2016-08-29 17:15 82 72 88 69 160° 6 - 29.95 - 10 CLR None
2016-08-29 16:55 84 72 90 66 170° 3 - 29.95 - 10 VCTS CLR None
2016-08-29 16:35 86 73 94 66 150° 14 - 29.95 - 10 TS CLR None
2016-08-29 16:15 88 73 96 62 160° 8 - 29.95 - 10 VCTS SCT047 BKN060 None
2016-08-29 15:55 90 70 96 52 160° 7 - 29.94 - 10 SCT047 None
2016-08-29 15:35 91 68 97 46 60° 6 - 29.93 - 10 CLR None
2016-08-29 15:15 91 70 98 49 80° 7 - 29.94 - 10 SCT047 SCT055 SCT090 None
2016-08-29 14:55 95 68 101 41 60° 8 - 29.95 - 10 SCT047 SCT055 BKN110 None
2016-08-29 14:35 95 68 101 41 70° 8 - 29.96 - 10 SCT048 SCT065 None
2016-08-29 14:15 93 68 99 44 80° 8 - 29.97 - 10 SCT046 SCT065 None
2016-08-29 13:55 95 68 101 41 100° 7 - 29.98 - 10 SCT046 SCT080 None
2016-08-29 13:35 93 70 100 46 60° 5 - 29.99 - 10 SCT040 SCT060 SCT080 None
2016-08-29 13:15 90 70 96 52 80° 7 - 30.00 - 10 SCT038 BKN070 BKN100 None
2016-08-29 12:55 91 72 100 52 110° 8 - 30.00 - 10 SCT036 SCT048 SCT060 None
2016-08-29 12:35 90 72 97 55 120° 6 - 30.01 - 10 SCT033 BKN041 BKN050 None
2016-08-29 12:15 91 72 100 52 120° 9 - 30.01 - 10 SCT080 SCT090 None
2016-08-29 11:55 91 72 100 52 80° 5 - 30.01 - 10 CLR None
2016-08-29 11:35 90 72 97 55 70° 5 - 30.01 - 10 CLR None
2016-08-29 11:15 90 72 97 55 60° 9 - 30.01 - 10 CLR None
2016-08-29 10:55 90 72 97 55 80° 8 - 30.00 - 10 SCT085 1-hr Precip Total: 0.01"
2016-08-29 10:35 88 72 95 58 80° 7 - 30.00 - 10 CLR 1-hr Precip Total: 0.01"
2016-08-29 10:15 88 73 96 62 60° 7 - 30.01 - 10 CLR None
2016-08-29 09:55 86 73 94 66 70° 6 - 30.01 - 10 CLR None
2016-08-29 09:35 82 73 89 74 60° 5 - 30.00 - 10 CLR None
2016-08-29 09:15 81 73 86 78 40° 6 - 30.00 - 10 CLR None
2016-08-29 08:55 79 72 83 78 30° 3 - 30.00 - 10 CLR None
2016-08-29 08:35 77 72 81 83 - Calm - 30.00 - 10 CLR None
2016-08-29 08:15 77 72 81 83 50° 3 - 29.99 - 10 CLR None

Support USWX by starting your Amazon purchase here.